Terminal Aerodrome Forecast
Issued by NWS

Home | Current Version | Previous Version | Text Only | Print | Product List | Glossary On
Versions: 1 2 3 4 5 6 7 8 9 10 11 12 13 14 15 16 17 18 19 20 21 22 23 24 25 26 27 28 29 30 31 32 33 34
000
FTAK31 PAFA 221745 CCC
TAFAFA
TAF COR
PAFA 221745Z 2218/2324 VRB03KT P6SM -SN BKN050 BKN100 BKN180
     FM222100 VRB03KT 3SM -SN BR BKN015 BKN025 OVC035
     FM230000 VRB04KT 1 1/2SM -SN BR BKN015 OVC025
     FM230700 VRB03KT 6SM BR FEW015 SCT025 BKN050=

USA.gov is the U.S. government's official web portal to all federal, state and local government web resources and services.